createdAt,value
2017-11-13T00:02:07.579Z,4.70
2017-11-13T00:04:33.888Z,4.80
2017-11-13T00:07:00.891Z,4.80
2017-11-13T00:09:27.184Z,4.80
2017-11-13T00:11:53.463Z,4.90
2017-11-13T00:14:19.760Z,4.90
2017-11-13T00:16:46.026Z,4.90
2017-11-13T00:19:12.303Z,4.90
2017-11-13T00:21:38.588Z,4.90
2017-11-13T00:24:05.579Z,5.00
2017-11-13T00:26:31.852Z,5.00
2017-11-13T00:28:58.144Z,5.00
2017-11-13T00:31:24.435Z,5.00
2017-11-13T00:33:50.732Z,5.00
2017-11-13T00:36:18.156Z,5.00
2017-11-13T00:38:44.415Z,5.00
2017-11-13T00:41:11.431Z,5.10
2017-11-13T00:43:37.721Z,5.10
2017-11-13T00:46:04.744Z,5.10
2017-11-13T00:48:31.080Z,5.10
2017-11-13T00:50:57.360Z,5.10
2017-11-13T00:53:23.621Z,5.10
2017-11-13T00:55:49.904Z,5.20
2017-11-13T00:58:16.198Z,5.20
2017-11-13T01:00:42.492Z,5.20
2017-11-13T01:03:08.753Z,5.20
2017-11-13T01:05:35.072Z,5.20
2017-11-13T01:08:01.329Z,5.20
2017-11-13T01:10:27.596Z,5.20
2017-11-13T01:12:54.983Z,5.20
2017-11-13T01:15:21.248Z,5.20
2017-11-13T01:17:47.515Z,5.20
2017-11-13T01:20:13.831Z,5.20
2017-11-13T01:22:40.087Z,5.20
2017-11-13T01:25:06.363Z,5.20
2017-11-13T01:27:33.391Z,5.20
2017-11-13T01:29:59.671Z,5.20
2017-11-13T01:32:25.927Z,5.20
2017-11-13T01:34:52.232Z,5.30
2017-11-13T01:37:18.511Z,5.30
2017-11-13T01:39:44.813Z,5.30
2017-11-13T01:42:12.111Z,5.30
2017-11-13T01:44:38.451Z,5.30
2017-11-13T01:47:04.765Z,5.30
2017-11-13T01:49:31.818Z,5.20
2017-11-13T01:51:58.112Z,5.20
2017-11-13T01:54:24.459Z,5.20
2017-11-13T01:56:50.767Z,5.20
2017-11-13T01:59:17.072Z,5.20
2017-11-13T02:01:43.414Z,5.20
2017-11-13T02:04:09.776Z,5.10
2017-11-13T02:06:36.099Z,5.10
2017-11-13T02:09:02.437Z,5.20
2017-11-13T02:11:28.748Z,5.20
2017-11-13T02:13:55.056Z,5.10
2017-11-13T02:16:21.386Z,5.10
2017-11-13T02:18:47.672Z,5.20
2017-11-13T02:21:14.002Z,5.20
2017-11-13T02:23:40.350Z,5.20
2017-11-13T02:26:06.636Z,5.20
2017-11-13T02:28:32.968Z,5.20
2017-11-13T02:30:59.267Z,5.20
2017-11-13T02:33:25.601Z,5.30
2017-11-13T02:35:51.933Z,5.30
2017-11-13T02:38:18.240Z,5.30
2017-11-13T02:40:44.579Z,5.30
2017-11-13T02:43:10.888Z,5.30
2017-11-13T02:45:37.228Z,5.30
2017-11-13T02:48:03.536Z,5.30
2017-11-13T02:50:30.609Z,5.20
2017-11-13T02:52:57.651Z,5.20
2017-11-13T02:55:23.994Z,5.10
2017-11-13T02:57:51.075Z,5.20
2017-11-13T03:00:17.375Z,5.20
2017-11-13T03:02:43.663Z,5.20
2017-11-13T03:05:09.943Z,5.20
2017-11-13T03:07:36.283Z,5.20
2017-11-13T03:10:02.621Z,5.10
2017-11-13T03:12:28.905Z,5.10
2017-11-13T03:14:55.227Z,5.00
2017-11-13T03:17:21.508Z,5.00
2017-11-13T03:19:47.826Z,5.10
2017-11-13T03:22:14.141Z,5.20
2017-11-13T03:24:40.466Z,5.20
2017-11-13T03:27:06.763Z,5.30
2017-11-13T03:29:33.063Z,5.30
2017-11-13T03:31:59.349Z,5.30
2017-11-13T03:34:25.678Z,5.30
2017-11-13T03:36:51.963Z,5.30
2017-11-13T03:39:18.279Z,5.20
2017-11-13T03:41:44.578Z,5.20
2017-11-13T03:44:10.868Z,5.20
2017-11-13T03:46:37.120Z,5.20
2017-11-13T03:49:03.425Z,5.20
2017-11-13T03:51:30.712Z,5.20
2017-11-13T03:53:56.999Z,5.20
2017-11-13T03:56:23.277Z,5.20
2017-11-13T03:58:50.315Z,5.30
2017-11-13T04:01:16.587Z,5.30
2017-11-13T04:03:42.870Z,5.40
2017-11-13T04:06:09.155Z,5.30
2017-11-13T04:08:36.197Z,5.40
2017-11-13T04:11:02.491Z,5.40
2017-11-13T04:13:28.801Z,5.40
2017-11-13T04:15:55.075Z,5.40
2017-11-13T04:18:22.477Z,5.40
2017-11-13T04:20:48.775Z,5.30
2017-11-13T04:23:15.814Z,5.20
2017-11-13T04:25:42.835Z,5.20
2017-11-13T04:28:10.200Z,5.20
2017-11-13T04:30:36.477Z,5.20
2017-11-13T04:33:03.511Z,5.30
2017-11-13T04:35:29.804Z,5.20
2017-11-13T04:37:56.811Z,5.30
2017-11-13T04:40:23.104Z,5.30
2017-11-13T04:42:49.452Z,5.30
2017-11-13T04:45:15.742Z,5.30
2017-11-13T04:47:42.020Z,5.30
2017-11-13T04:50:08.343Z,5.30
2017-11-13T04:52:35.384Z,5.20
2017-11-13T04:55:01.763Z,5.20
2017-11-13T04:57:28.036Z,5.20
2017-11-13T04:59:54.332Z,5.20
2017-11-13T05:02:21.908Z,5.20
2017-11-13T05:04:48.935Z,5.20
2017-11-13T05:07:15.268Z,5.20
2017-11-13T05:09:42.578Z,5.20
2017-11-13T05:12:08.917Z,5.10
2017-11-13T05:14:35.235Z,5.20
2017-11-13T05:17:01.556Z,5.30
2017-11-13T05:19:27.868Z,5.30
2017-11-13T05:21:54.904Z,5.40
2017-11-13T05:24:21.989Z,5.40
2017-11-13T05:26:48.298Z,5.40
2017-11-13T05:29:15.348Z,5.40
2017-11-13T05:31:41.623Z,5.40
2017-11-13T05:34:07.964Z,5.40
2017-11-13T05:36:34.984Z,5.40
2017-11-13T05:39:01.264Z,5.40
2017-11-13T05:41:27.555Z,5.40
2017-11-13T05:43:53.831Z,5.40
2017-11-13T05:46:20.079Z,5.40
2017-11-13T05:48:47.107Z,5.40
2017-11-13T05:51:13.385Z,5.40
2017-11-13T05:53:39.676Z,5.40
2017-11-13T05:56:05.963Z,5.50
2017-11-13T05:58:32.251Z,5.50
2017-11-13T06:00:58.515Z,5.50
2017-11-13T06:03:24.807Z,5.60
2017-11-13T06:05:51.093Z,5.60
2017-11-13T06:08:17.388Z,5.60
2017-11-13T06:10:43.690Z,5.60
2017-11-13T06:13:11.027Z,5.60
2017-11-13T06:15:37.333Z,5.70
2017-11-13T06:18:03.626Z,5.70
2017-11-13T06:20:29.892Z,5.60
2017-11-13T06:22:56.216Z,5.70
2017-11-13T06:25:23.231Z,5.70
2017-11-13T06:27:49.496Z,5.70
2017-11-13T06:30:15.832Z,5.70
2017-11-13T06:32:42.113Z,5.70
2017-11-13T06:35:09.174Z,5.70
2017-11-13T06:37:35.452Z,5.70
2017-11-13T06:40:01.699Z,5.70
2017-11-13T06:42:27.979Z,5.70
2017-11-13T06:44:54.270Z,5.70
2017-11-13T06:47:20.555Z,5.70
2017-11-13T06:49:46.872Z,5.70
2017-11-13T06:52:13.132Z,5.70
2017-11-13T06:54:39.444Z,5.70
2017-11-13T06:57:05.715Z,5.60
2017-11-13T06:59:32.015Z,5.50
2017-11-13T07:01:58.295Z,5.50
2017-11-13T07:04:24.592Z,5.50
2017-11-13T07:06:51.606Z,5.40
2017-11-13T07:09:17.921Z,5.40
2017-11-13T07:11:44.196Z,5.40
2017-11-13T07:14:10.492Z,5.40
2017-11-13T07:16:36.776Z,5.40
2017-11-13T07:19:03.095Z,5.40
2017-11-13T07:21:29.370Z,5.50
2017-11-13T07:23:56.381Z,5.60
2017-11-13T07:26:23.779Z,5.60
2017-11-13T07:28:50.053Z,5.60
2017-11-13T07:31:16.343Z,5.60
2017-11-13T07:33:42.639Z,5.60
2017-11-13T07:36:08.924Z,5.70
2017-11-13T07:38:35.212Z,5.70
2017-11-13T07:41:01.477Z,5.70
2017-11-13T07:43:27.795Z,5.70
2017-11-13T07:45:54.087Z,5.80
2017-11-13T07:48:20.365Z,5.90
2017-11-13T07:50:47.412Z,6.00
2017-11-13T07:53:15.939Z,6.00
2017-11-13T07:55:42.236Z,6.00
2017-11-13T07:58:08.552Z,6.00
2017-11-13T08:00:34.868Z,6.00
2017-11-13T08:03:03.264Z,6.00
2017-11-13T08:05:29.551Z,6.10
2017-11-13T08:07:56.871Z,6.10
2017-11-13T08:10:23.172Z,6.20
2017-11-13T08:12:49.476Z,6.30
2017-11-13T08:15:15.806Z,6.30
2017-11-13T08:17:42.075Z,6.40
2017-11-13T08:20:08.388Z,6.50
2017-11-13T08:22:34.711Z,6.50
2017-11-13T08:25:01.069Z,6.60
2017-11-13T08:27:27.372Z,6.60
2017-11-13T08:29:54.456Z,6.70
2017-11-13T08:32:20.748Z,6.70
2017-11-13T08:34:47.144Z,6.70
2017-11-13T08:37:14.175Z,6.80
2017-11-13T08:39:40.543Z,6.80
2017-11-13T08:42:06.853Z,6.80
2017-11-13T08:44:33.153Z,6.80
2017-11-13T08:46:59.436Z,6.80
2017-11-13T08:49:26.504Z,6.80
2017-11-13T08:51:52.865Z,6.80
2017-11-13T08:54:19.254Z,6.70
2017-11-13T08:56:45.693Z,6.70
2017-11-13T08:59:12.091Z,6.70
2017-11-13T09:01:38.509Z,6.80
2017-11-13T09:04:05.004Z,6.80
2017-11-13T09:06:31.392Z,6.80
2017-11-13T09:08:57.794Z,6.90
2017-11-13T09:11:24.232Z,6.90
2017-11-13T09:13:50.626Z,7.00
2017-11-13T09:16:17.037Z,7.00
2017-11-13T09:18:43.477Z,7.00
2017-11-13T09:21:09.894Z,7.00
2017-11-13T09:23:36.308Z,7.00
2017-11-13T09:26:02.766Z,7.00
2017-11-13T09:28:29.880Z,7.20
2017-11-13T09:30:56.346Z,7.10
2017-11-13T09:33:22.768Z,7.20
2017-11-13T09:35:49.140Z,7.20
2017-11-13T09:38:15.644Z,7.20
2017-11-13T09:40:42.073Z,7.20
2017-11-13T09:43:08.465Z,7.30
2017-11-13T09:45:34.925Z,7.30
2017-11-13T09:48:02.156Z,7.30
2017-11-13T09:50:28.593Z,7.30
2017-11-13T09:52:55.057Z,7.20
2017-11-13T09:55:22.312Z,7.30
2017-11-13T09:57:48.711Z,7.20
2017-11-13T10:00:15.128Z,7.30
2017-11-13T10:02:41.548Z,7.50
2017-11-13T10:05:09.040Z,7.50
2017-11-13T10:07:36.231Z,7.60
2017-11-13T10:10:03.365Z,7.60
2017-11-13T10:12:29.849Z,7.60
2017-11-13T10:14:56.292Z,7.60
2017-11-13T10:17:22.730Z,7.60
2017-11-13T10:19:49.885Z,7.50
2017-11-13T10:22:16.354Z,7.50
2017-11-13T10:24:42.838Z,7.50
2017-11-13T10:27:09.265Z,7.50
2017-11-13T10:29:35.749Z,7.50
2017-11-13T10:32:02.128Z,7.50
2017-11-13T10:34:28.581Z,7.60
2017-11-13T10:36:55.095Z,7.50
2017-11-13T10:39:21.568Z,7.50
2017-11-13T10:41:47.968Z,7.60
2017-11-13T10:44:14.371Z,7.60
2017-11-13T10:46:40.780Z,7.50
2017-11-13T10:49:07.274Z,7.50
2017-11-13T10:51:33.697Z,7.50
2017-11-13T10:54:00.143Z,7.60
2017-11-13T10:56:26.609Z,7.60
2017-11-13T10:58:53.077Z,7.70
2017-11-13T11:01:20.295Z,7.80
2017-11-13T11:03:46.781Z,7.80
2017-11-13T11:06:13.228Z,7.80
2017-11-13T11:08:40.479Z,7.80
2017-11-13T11:11:08.010Z,7.80
2017-11-13T11:13:38.269Z,7.90
2017-11-13T11:16:10.778Z,7.80
2017-11-13T11:18:39.113Z,7.80
2017-11-13T11:24:04.060Z,7.80
2017-11-13T11:26:41.076Z,7.90
2017-11-13T11:29:12.314Z,7.80
2017-11-13T11:31:39.412Z,7.90
2017-11-13T11:37:18.396Z,8.00
2017-11-13T11:39:44.740Z,8.20
2017-11-13T11:42:11.069Z,8.30
2017-11-13T11:47:42.755Z,8.40
2017-11-13T11:50:09.101Z,8.40
2017-11-13T11:52:35.428Z,8.40
2017-11-13T11:55:02.684Z,8.40
2017-11-13T11:57:29.937Z,8.40
2017-11-13T11:59:56.268Z,8.40
2017-11-13T12:02:22.624Z,8.30
2017-11-13T12:04:48.935Z,8.30
2017-11-13T12:07:15.272Z,8.40
2017-11-13T12:09:41.625Z,8.50
2017-11-13T12:12:07.940Z,8.60
2017-11-13T12:14:34.279Z,8.70
2017-11-13T12:17:00.571Z,8.60
2017-11-13T12:19:26.875Z,8.50
2017-11-13T12:21:53.204Z,8.50
2017-11-13T12:24:19.513Z,8.60
2017-11-13T12:26:45.796Z,8.60
2017-11-13T12:29:12.090Z,8.60
2017-11-13T12:31:38.374Z,8.70
2017-11-13T12:34:04.651Z,8.80
2017-11-13T12:36:30.951Z,8.70
2017-11-13T12:38:57.235Z,8.70
2017-11-13T12:41:23.515Z,8.70
2017-11-13T12:43:49.792Z,8.70
2017-11-13T12:46:16.095Z,8.60
2017-11-13T12:48:42.388Z,8.50
2017-11-13T12:51:08.704Z,8.50
2017-11-13T12:53:35.028Z,8.50
2017-11-13T12:56:01.295Z,8.50
2017-11-13T12:58:27.632Z,8.60
2017-11-13T13:00:53.964Z,8.60
2017-11-13T13:03:20.259Z,8.50
2017-11-13T13:05:46.591Z,8.50
2017-11-13T13:08:12.939Z,8.60
2017-11-13T13:10:39.409Z,8.70
2017-11-13T13:13:06.456Z,8.70
2017-11-13T13:15:34.636Z,8.70
2017-11-13T13:18:00.976Z,8.70
2017-11-13T13:20:27.284Z,8.60
2017-11-13T13:22:53.580Z,8.60
2017-11-13T13:25:19.936Z,8.60
2017-11-13T13:27:46.976Z,8.50
2017-11-13T13:30:13.284Z,8.50
2017-11-13T13:32:39.600Z,8.50
2017-11-13T13:35:05.904Z,8.40
2017-11-13T13:37:32.216Z,8.40
2017-11-13T13:39:58.539Z,8.40
2017-11-13T13:42:24.839Z,8.50
2017-11-13T13:44:51.136Z,8.50
2017-11-13T13:47:17.419Z,8.40
2017-11-13T13:49:43.740Z,8.30
2017-11-13T13:52:10.040Z,8.30
2017-11-13T13:54:36.364Z,8.40
2017-11-13T13:57:03.651Z,8.10
2017-11-13T13:59:29.976Z,8.00
2017-11-13T14:01:56.272Z,7.80
2017-11-13T14:04:22.540Z,7.90
2017-11-13T14:06:48.852Z,7.80
2017-11-13T14:09:15.111Z,7.80
2017-11-13T14:11:42.860Z,7.80
2017-11-13T14:14:09.256Z,7.70
2017-11-13T14:16:35.540Z,7.70
2017-11-13T14:19:01.840Z,7.60
2017-11-13T14:21:28.121Z,7.60
2017-11-13T14:23:55.487Z,7.60
2017-11-13T14:26:21.780Z,7.50
2017-11-13T14:28:48.101Z,7.60
2017-11-13T14:31:14.431Z,7.40
2017-11-13T14:33:40.732Z,7.40
2017-11-13T14:36:06.983Z,7.40
2017-11-13T14:38:33.295Z,7.30
2017-11-13T14:41:00.662Z,7.20
2017-11-13T14:43:26.925Z,7.20
2017-11-13T14:45:53.231Z,7.30
2017-11-13T14:48:19.528Z,7.30
2017-11-13T14:50:45.819Z,7.30
2017-11-13T14:53:12.812Z,7.20
2017-11-13T14:55:39.159Z,7.20
2017-11-13T14:58:05.465Z,7.10
2017-11-13T15:00:32.484Z,7.10
2017-11-13T15:02:58.799Z,7.00
2017-11-13T15:05:25.075Z,7.00
2017-11-13T15:07:51.347Z,7.10
2017-11-13T15:10:17.659Z,7.00
2017-11-13T15:12:43.944Z,6.90
2017-11-13T15:15:11.300Z,6.90
2017-11-13T15:17:37.618Z,6.80
2017-11-13T15:20:04.632Z,6.80
2017-11-13T15:22:30.927Z,6.80
2017-11-13T15:24:57.272Z,6.70
2017-11-13T15:27:24.286Z,6.60
2017-11-13T15:29:50.579Z,6.60
2017-11-13T15:32:16.908Z,6.60
2017-11-13T15:34:43.171Z,6.50
2017-11-13T15:37:10.200Z,6.30
2017-11-13T15:39:37.245Z,6.30
2017-11-13T15:42:03.532Z,6.30
2017-11-13T15:44:30.551Z,6.20
2017-11-13T15:46:56.844Z,6.20
2017-11-13T15:49:23.147Z,6.10
2017-11-13T15:51:49.424Z,6.10
2017-11-13T15:54:15.732Z,6.00
2017-11-13T15:56:42.021Z,6.00
2017-11-13T15:59:08.287Z,5.90
2017-11-13T16:01:34.581Z,5.70
2017-11-13T16:04:00.843Z,5.80
2017-11-13T16:06:27.115Z,5.90
2017-11-13T16:08:53.407Z,5.70
2017-11-13T16:11:19.691Z,5.80
2017-11-13T16:13:45.948Z,5.70
2017-11-13T16:16:13.001Z,5.50
2017-11-13T16:18:39.300Z,5.50
2017-11-13T16:21:05.593Z,5.50
2017-11-13T16:23:32.658Z,5.20
2017-11-13T16:25:58.990Z,5.20
2017-11-13T16:28:25.349Z,5.10
2017-11-13T16:30:51.716Z,5.10
2017-11-13T16:33:17.975Z,5.30
2017-11-13T16:35:44.259Z,5.30
2017-11-13T16:38:10.726Z,5.20
2017-11-13T16:40:37.056Z,5.20
2017-11-13T16:43:03.380Z,5.20
2017-11-13T16:45:29.811Z,5.20
2017-11-13T16:47:56.289Z,5.20
2017-11-13T16:50:23.361Z,5.20
2017-11-13T16:52:49.743Z,5.20
2017-11-13T16:55:16.311Z,5.20
2017-11-13T16:57:43.569Z,5.20
2017-11-13T17:00:10.182Z,5.20
2017-11-13T17:02:36.534Z,5.20
2017-11-13T17:05:02.851Z,5.20
2017-11-13T17:07:31.485Z,5.00
2017-11-13T17:09:58.168Z,5.00
2017-11-13T17:12:25.246Z,4.90
2017-11-13T17:14:53.125Z,4.90
2017-11-13T17:17:21.699Z,5.00
2017-11-13T17:19:49.558Z,4.90
2017-11-13T17:22:18.437Z,4.70
2017-11-13T17:24:47.344Z,4.70
2017-11-13T17:27:16.745Z,4.50
2017-11-13T17:29:45.426Z,4.40
2017-11-13T17:32:14.722Z,4.30
2017-11-13T17:34:43.559Z,4.30
2017-11-13T17:37:12.499Z,4.30
2017-11-13T17:39:42.511Z,4.20
2017-11-13T17:42:12.550Z,4.20
2017-11-13T17:44:41.645Z,4.20
2017-11-13T17:47:11.534Z,4.20
2017-11-13T17:49:40.547Z,4.10
2017-11-13T17:52:09.793Z,4.00
2017-11-13T17:54:39.004Z,3.90
2017-11-13T17:57:07.967Z,3.90
2017-11-13T17:59:36.636Z,3.90
2017-11-13T18:02:06.587Z,3.80
2017-11-13T18:04:35.667Z,4.10
2017-11-13T18:07:04.742Z,4.00
2017-11-13T18:09:33.809Z,4.20
2017-11-13T18:12:02.507Z,4.30
2017-11-13T18:14:31.526Z,4.40
2017-11-13T18:17:00.250Z,4.50
2017-11-13T18:19:29.182Z,4.50
2017-11-13T18:21:58.415Z,4.50
2017-11-13T18:24:28.292Z,4.50
2017-11-13T18:26:56.972Z,4.60
2017-11-13T18:29:25.761Z,4.60
2017-11-13T18:31:54.656Z,4.60
2017-11-13T18:34:23.500Z,4.70
2017-11-13T18:36:52.528Z,4.70
2017-11-13T18:39:21.174Z,4.70
2017-11-13T18:41:50.182Z,4.80
2017-11-13T18:44:19.069Z,4.80
2017-11-13T18:46:48.115Z,4.80
2017-11-13T18:49:16.824Z,4.80
2017-11-13T18:51:47.372Z,4.80
2017-11-13T18:54:17.890Z,5.00
2017-11-13T18:56:48.261Z,5.00
2017-11-13T18:59:17.039Z,5.00
2017-11-13T19:01:45.952Z,5.00
2017-11-13T19:04:15.233Z,5.00
2017-11-13T19:06:44.409Z,4.90
2017-11-13T19:09:13.986Z,4.90
2017-11-13T19:11:43.271Z,4.90
2017-11-13T19:14:12.982Z,4.90
2017-11-13T19:16:41.818Z,4.90
2017-11-13T19:19:10.567Z,4.90
2017-11-13T19:21:40.020Z,5.00
2017-11-13T19:24:09.864Z,5.00
2017-11-13T19:26:40.081Z,5.20
2017-11-13T19:29:09.467Z,5.10
2017-11-13T19:31:38.265Z,5.20
2017-11-13T19:34:07.573Z,5.10
2017-11-13T19:36:36.560Z,5.10
2017-11-13T19:39:06.028Z,5.00
2017-11-13T19:41:35.577Z,4.90
2017-11-13T19:44:04.291Z,4.90
2017-11-13T19:46:33.209Z,4.90
2017-11-13T19:49:01.996Z,4.90
2017-11-13T19:51:30.728Z,4.90
2017-11-13T19:53:59.610Z,4.80
2017-11-13T19:56:28.797Z,4.80
2017-11-13T19:58:58.334Z,4.80
2017-11-13T20:01:27.032Z,4.70
2017-11-13T20:03:56.044Z,4.70
2017-11-13T20:06:25.033Z,4.70
2017-11-13T20:08:53.741Z,4.70
2017-11-13T20:11:23.717Z,4.70
2017-11-13T20:13:52.718Z,4.70
2017-11-13T20:16:23.128Z,4.70
2017-11-13T20:18:51.965Z,4.60
2017-11-13T20:21:20.971Z,4.60
2017-11-13T20:23:49.882Z,4.60
2017-11-13T20:26:18.798Z,4.60
2017-11-13T20:28:47.628Z,4.70
2017-11-13T20:31:16.396Z,4.60
2017-11-13T20:33:45.186Z,4.60
2017-11-13T20:36:13.799Z,4.60
2017-11-13T20:38:42.866Z,4.60
2017-11-13T20:41:12.497Z,4.60
2017-11-13T20:43:41.603Z,4.60
2017-11-13T20:46:11.673Z,4.60
2017-11-13T20:48:41.413Z,4.60
2017-11-13T20:51:12.557Z,4.50
2017-11-13T20:53:41.918Z,4.50
2017-11-13T20:56:12.059Z,4.50
2017-11-13T20:58:40.968Z,4.50
2017-11-13T21:01:10.195Z,4.60
2017-11-13T21:03:39.372Z,4.50
2017-11-13T21:06:09.007Z,4.50
2017-11-13T21:08:38.806Z,4.60
2017-11-13T21:11:07.612Z,4.50
2017-11-13T21:13:36.423Z,4.50
2017-11-13T21:16:06.353Z,4.40
2017-11-13T21:18:36.685Z,4.40
2017-11-13T21:21:06.071Z,4.40
2017-11-13T21:23:35.111Z,4.40
2017-11-13T21:26:04.832Z,4.40
2017-11-13T21:28:33.519Z,4.40
2017-11-13T21:31:03.962Z,4.30
2017-11-13T21:33:33.069Z,4.30
2017-11-13T21:36:02.332Z,4.30
2017-11-13T21:38:31.031Z,4.30
2017-11-13T21:40:59.650Z,4.20
2017-11-13T21:43:28.341Z,4.10
2017-11-13T21:45:58.175Z,4.00
2017-11-13T21:48:27.628Z,4.00
2017-11-13T21:50:56.555Z,4.00
2017-11-13T21:56:35.057Z,3.90
2017-11-13T21:59:03.027Z,3.80
2017-11-13T22:01:30.846Z,3.70
2017-11-13T22:03:59.364Z,3.60
2017-11-13T22:06:28.469Z,3.60
2017-11-13T22:08:56.209Z,3.50
2017-11-13T22:11:24.248Z,3.50
2017-11-13T22:13:53.420Z,3.50
2017-11-13T22:16:22.067Z,3.40
2017-11-13T22:18:50.801Z,3.30
2017-11-13T22:21:20.641Z,3.10
2017-11-13T22:23:50.419Z,3.00
2017-11-13T22:26:19.317Z,3.00
2017-11-13T22:28:48.068Z,3.10
2017-11-13T22:31:16.464Z,3.00
2017-11-13T22:33:44.571Z,2.90
2017-11-13T22:36:14.076Z,3.00
2017-11-13T22:38:43.134Z,3.00
2017-11-13T22:41:11.879Z,3.10
2017-11-13T22:43:40.801Z,2.90
2017-11-13T22:46:07.671Z,2.70
2017-11-13T22:48:34.080Z,2.70
2017-11-13T22:51:01.454Z,2.80
2017-11-13T22:53:27.769Z,2.80
2017-11-13T22:55:54.091Z,2.70
2017-11-13T22:58:20.396Z,2.90
2017-11-13T23:00:46.692Z,3.10
2017-11-13T23:03:12.981Z,2.90
2017-11-13T23:05:39.272Z,2.80
2017-11-13T23:08:05.538Z,2.70
2017-11-13T23:10:31.867Z,2.60
2017-11-13T23:12:58.132Z,2.40
2017-11-13T23:15:24.431Z,2.30
2017-11-13T23:17:50.743Z,2.20
2017-11-13T23:20:17.767Z,2.00
2017-11-13T23:22:44.051Z,2.00
2017-11-13T23:25:10.340Z,2.00
2017-11-13T23:27:36.591Z,2.00
2017-11-13T23:30:02.875Z,2.10
2017-11-13T23:32:29.175Z,2.00
2017-11-13T23:34:55.472Z,1.90
2017-11-13T23:37:21.750Z,1.90
2017-11-13T23:39:48.064Z,1.80
2017-11-13T23:42:14.364Z,1.70
2017-11-13T23:44:41.438Z,1.60
2017-11-13T23:47:07.759Z,1.60
2017-11-13T23:49:34.306Z,1.50
2017-11-13T23:52:01.376Z,1.40
2017-11-13T23:54:35.697Z,1.50
2017-11-13T23:57:03.175Z,1.40
2017-11-13T23:59:29.553Z,1.40
